sensor_id;sensor_type;location;lat;lon;timestamp;P1;durP1;ratioP1;P2;durP2;ratioP2
3155;SDS011;1588;50.892;7.082;2023-02-01T00:04:11;18.23;;;7.13;;
3155;SDS011;1588;50.892;7.082;2023-02-01T00:09:14;22.23;;;7.27;;
3155;SDS011;1588;50.892;7.082;2023-02-01T00:14:18;16.43;;;6.20;;
3155;SDS011;1588;50.892;7.082;2023-02-01T00:19:29;18.10;;;6.27;;
3155;SDS011;1588;50.892;7.082;2023-02-01T00:24:32;14.97;;;6.00;;
3155;SDS011;1588;50.892;7.082;2023-02-01T00:29:39;14.03;;;5.70;;
3155;SDS011;1588;50.892;7.082;2023-02-01T00:34:45;20.67;;;5.43;;
3155;SDS011;1588;50.892;7.082;2023-02-01T00:39:57;17.57;;;5.97;;
3155;SDS011;1588;50.892;7.082;2023-02-01T00:45:02;13.67;;;5.60;;
3155;SDS011;1588;50.892;7.082;2023-02-01T00:50:08;23.50;;;5.97;;
3155;SDS011;1588;50.892;7.082;2023-02-01T00:55:11;24.83;;;6.13;;
3155;SDS011;1588;50.892;7.082;2023-02-01T01:00:16;13.40;;;4.97;;
3155;SDS011;1588;50.892;7.082;2023-02-01T01:05:19;11.90;;;4.10;;
3155;SDS011;1588;50.892;7.082;2023-02-01T01:10:23;18.63;;;4.77;;
3155;SDS011;1588;50.892;7.082;2023-02-01T01:15:29;21.93;;;5.17;;
3155;SDS011;1588;50.892;7.082;2023-02-01T01:20:31;17.43;;;4.80;;
3155;SDS011;1588;50.892;7.082;2023-02-01T01:25:37;16.13;;;4.00;;
3155;SDS011;1588;50.892;7.082;2023-02-01T01:30:41;15.97;;;4.20;;
3155;SDS011;1588;50.892;7.082;2023-02-01T01:35:44;13.83;;;4.00;;
3155;SDS011;1588;50.892;7.082;2023-02-01T01:40:56;16.00;;;3.80;;
3155;SDS011;1588;50.892;7.082;2023-02-01T01:46:01;7.70;;;2.83;;
3155;SDS011;1588;50.892;7.082;2023-02-01T01:51:04;22.27;;;3.97;;
3155;SDS011;1588;50.892;7.082;2023-02-01T01:56:13;15.53;;;3.30;;
3155;SDS011;1588;50.892;7.082;2023-02-01T02:01:18;6.33;;;2.83;;
3155;SDS011;1588;50.892;7.082;2023-02-01T02:06:24;14.83;;;2.87;;
3155;SDS011;1588;50.892;7.082;2023-02-01T02:11:35;12.30;;;3.20;;
3155;SDS011;1588;50.892;7.082;2023-02-01T02:16:40;34.73;;;3.97;;
3155;SDS011;1588;50.892;7.082;2023-02-01T02:22:11;6.80;;;2.33;;
3155;SDS011;1588;50.892;7.082;2023-02-01T02:27:32;21.10;;;2.93;;
3155;SDS011;1588;50.892;7.082;2023-02-01T02:38:27;14.60;;;3.00;;
3155;SDS011;1588;50.892;7.082;2023-02-01T02:43:39;21.53;;;3.87;;
3155;SDS011;1588;50.892;7.082;2023-02-01T02:49:08;20.93;;;3.70;;
3155;SDS011;1588;50.892;7.082;2023-02-01T02:54:15;19.40;;;4.53;;
3155;SDS011;1588;50.892;7.082;2023-02-01T02:59:38;23.00;;;4.40;;
3155;SDS011;1588;50.892;7.082;2023-02-01T03:05:01;12.47;;;3.97;;
3155;SDS011;1588;50.892;7.082;2023-02-01T03:10:05;23.00;;;5.10;;
3155;SDS011;1588;50.892;7.082;2023-02-01T03:15:12;16.90;;;4.43;;
3155;SDS011;1588;50.892;7.082;2023-02-01T03:20:16;14.07;;;4.67;;
3155;SDS011;1588;50.892;7.082;2023-02-01T03:25:22;18.77;;;4.70;;
3155;SDS011;1588;50.892;7.082;2023-02-01T03:30:28;21.47;;;5.13;;
3155;SDS011;1588;50.892;7.082;2023-02-01T03:35:36;18.83;;;4.40;;
3155;SDS011;1588;50.892;7.082;2023-02-01T03:40:42;17.67;;;4.07;;
3155;SDS011;1588;50.892;7.082;2023-02-01T03:45:49;21.07;;;3.80;;
3155;SDS011;1588;50.892;7.082;2023-02-01T03:50:56;15.33;;;4.03;;
3155;SDS011;1588;50.892;7.082;2023-02-01T03:56:02;22.13;;;3.50;;
3155;SDS011;1588;50.892;7.082;2023-02-01T04:01:06;11.80;;;3.70;;
3155;SDS011;1588;50.892;7.082;2023-02-01T04:06:10;16.00;;;3.90;;
3155;SDS011;1588;50.892;7.082;2023-02-01T04:11:13;15.70;;;4.03;;
3155;SDS011;1588;50.892;7.082;2023-02-01T04:16:16;9.10;;;3.13;;
3155;SDS011;1588;50.892;7.082;2023-02-01T04:21:20;21.27;;;4.37;;
3155;SDS011;1588;50.892;7.082;2023-02-01T04:26:22;26.57;;;4.20;;
3155;SDS011;1588;50.892;7.082;2023-02-01T04:31:25;16.90;;;3.50;;
3155;SDS011;1588;50.892;7.082;2023-02-01T04:36:29;9.87;;;3.70;;
3155;SDS011;1588;50.892;7.082;2023-02-01T04:41:32;19.67;;;4.70;;
3155;SDS011;1588;50.892;7.082;2023-02-01T04:46:37;22.90;;;4.30;;
3155;SDS011;1588;50.892;7.082;2023-02-01T04:51:41;14.30;;;4.43;;
3155;SDS011;1588;50.892;7.082;2023-02-01T04:56:44;17.23;;;4.77;;
3155;SDS011;1588;50.892;7.082;2023-02-01T05:01:46;10.80;;;4.00;;
3155;SDS011;1588;50.892;7.082;2023-02-01T05:06:50;18.83;;;3.70;;
3155;SDS011;1588;50.892;7.082;2023-02-01T05:11:53;12.67;;;3.80;;
3155;SDS011;1588;50.892;7.082;2023-02-01T05:17:27;16.97;;;3.60;;
3155;SDS011;1588;50.892;7.082;2023-02-01T05:22:31;19.07;;;3.90;;
3155;SDS011;1588;50.892;7.082;2023-02-01T05:27:33;21.57;;;4.07;;
3155;SDS011;1588;50.892;7.082;2023-02-01T05:32:37;12.67;;;2.70;;
3155;SDS011;1588;50.892;7.082;2023-02-01T05:37:41;13.67;;;2.93;;
3155;SDS011;1588;50.892;7.082;2023-02-01T05:42:43;13.80;;;2.83;;
3155;SDS011;1588;50.892;7.082;2023-02-01T05:47:46;14.03;;;3.07;;
3155;SDS011;1588;50.892;7.082;2023-02-01T05:52:49;8.40;;;2.50;;
3155;SDS011;1588;50.892;7.082;2023-02-01T05:57:52;13.33;;;2.83;;
3155;SDS011;1588;50.892;7.082;2023-02-01T06:02:55;18.90;;;3.10;;
3155;SDS011;1588;50.892;7.082;2023-02-01T06:07:59;13.53;;;2.90;;
3155;SDS011;1588;50.892;7.082;2023-02-01T06:13:01;17.17;;;3.10;;
3155;SDS011;1588;50.892;7.082;2023-02-01T06:18:05;17.90;;;3.33;;
3155;SDS011;1588;50.892;7.082;2023-02-01T06:23:09;10.53;;;2.50;;
3155;SDS011;1588;50.892;7.082;2023-02-01T06:28:11;16.20;;;3.50;;
3155;SDS011;1588;50.892;7.082;2023-02-01T06:33:13;31.50;;;3.23;;
3155;SDS011;1588;50.892;7.082;2023-02-01T06:38:20;23.20;;;2.77;;
3155;SDS011;1588;50.892;7.082;2023-02-01T06:43:23;17.43;;;3.47;;
3155;SDS011;1588;50.892;7.082;2023-02-01T06:48:27;8.80;;;2.50;;
3155;SDS011;1588;50.892;7.082;2023-02-01T06:53:35;7.03;;;2.37;;
3155;SDS011;1588;50.892;7.082;2023-02-01T06:58:38;23.50;;;3.93;;
3155;SDS011;1588;50.892;7.082;2023-02-01T07:03:43;14.13;;;2.90;;
3155;SDS011;1588;50.892;7.082;2023-02-01T07:08:51;16.23;;;2.47;;
3155;SDS011;1588;50.892;7.082;2023-02-01T07:13:57;19.53;;;3.17;;
3155;SDS011;1588;50.892;7.082;2023-02-01T07:18:59;21.60;;;3.83;;
3155;SDS011;1588;50.892;7.082;2023-02-01T07:24:05;12.30;;;2.83;;
3155;SDS011;1588;50.892;7.082;2023-02-01T07:29:07;11.97;;;3.23;;
3155;SDS011;1588;50.892;7.082;2023-02-01T07:34:10;13.40;;;3.90;;
3155;SDS011;1588;50.892;7.082;2023-02-01T07:39:14;12.30;;;2.73;;
3155;SDS011;1588;50.892;7.082;2023-02-01T07:44:16;12.00;;;2.60;;
3155;SDS011;1588;50.892;7.082;2023-02-01T07:49:23;26.33;;;3.37;;
3155;SDS011;1588;50.892;7.082;2023-02-01T07:54:30;12.60;;;2.67;;
3155;SDS011;1588;50.892;7.082;2023-02-01T07:59:33;17.17;;;3.03;;
3155;SDS011;1588;50.892;7.082;2023-02-01T08:04:38;18.20;;;3.10;;
3155;SDS011;1588;50.892;7.082;2023-02-01T08:09:42;14.43;;;2.53;;
3155;SDS011;1588;50.892;7.082;2023-02-01T08:14:45;11.20;;;2.63;;
3155;SDS011;1588;50.892;7.082;2023-02-01T08:19:47;8.80;;;2.87;;
3155;SDS011;1588;50.892;7.082;2023-02-01T08:24:51;12.13;;;3.10;;
3155;SDS011;1588;50.892;7.082;2023-02-01T08:30:05;17.43;;;3.13;;
3155;SDS011;1588;50.892;7.082;2023-02-01T08:35:09;21.90;;;3.50;;
3155;SDS011;1588;50.892;7.082;2023-02-01T08:40:17;10.57;;;2.50;;
3155;SDS011;1588;50.892;7.082;2023-02-01T08:45:23;11.10;;;2.83;;
3155;SDS011;1588;50.892;7.082;2023-02-01T08:50:28;18.40;;;3.30;;
3155;SDS011;1588;50.892;7.082;2023-02-01T08:55:32;10.13;;;2.60;;
3155;SDS011;1588;50.892;7.082;2023-02-01T09:00:34;23.37;;;3.10;;
3155;SDS011;1588;50.892;7.082;2023-02-01T09:05:37;19.33;;;2.67;;
3155;SDS011;1588;50.892;7.082;2023-02-01T09:10:41;19.83;;;2.47;;
3155;SDS011;1588;50.892;7.082;2023-02-01T09:15:44;18.83;;;2.80;;
3155;SDS011;1588;50.892;7.082;2023-02-01T09:20:46;14.50;;;2.47;;
3155;SDS011;1588;50.892;7.082;2023-02-01T09:25:51;14.00;;;2.50;;
3155;SDS011;1588;50.892;7.082;2023-02-01T09:30:55;12.17;;;2.90;;
3155;SDS011;1588;50.892;7.082;2023-02-01T09:35:59;22.87;;;3.27;;
3155;SDS011;1588;50.892;7.082;2023-02-01T09:41:10;33.90;;;3.37;;
3155;SDS011;1588;50.892;7.082;2023-02-01T09:46:27;16.33;;;3.00;;
3155;SDS011;1588;50.892;7.082;2023-02-01T09:51:34;11.17;;;3.27;;
3155;SDS011;1588;50.892;7.082;2023-02-01T09:56:41;25.27;;;4.60;;
3155;SDS011;1588;50.892;7.082;2023-02-01T10:01:50;24.07;;;3.23;;
3155;SDS011;1588;50.892;7.082;2023-02-01T10:06:56;25.93;;;4.13;;
3155;SDS011;1588;50.892;7.082;2023-02-01T10:12:20;17.57;;;3.53;;
3155;SDS011;1588;50.892;7.082;2023-02-01T10:17:45;12.27;;;3.23;;
3155;SDS011;1588;50.892;7.082;2023-02-01T10:22:58;3.73;;;1.90;;
3155;SDS011;1588;50.892;7.082;2023-02-01T10:28:16;9.30;;;3.37;;
3155;SDS011;1588;50.892;7.082;2023-02-01T10:33:33;16.57;;;2.90;;
3155;SDS011;1588;50.892;7.082;2023-02-01T10:38:37;19.33;;;3.30;;
3155;SDS011;1588;50.892;7.082;2023-02-01T10:43:41;8.93;;;2.90;;
3155;SDS011;1588;50.892;7.082;2023-02-01T10:48:45;23.27;;;3.67;;
3155;SDS011;1588;50.892;7.082;2023-02-01T10:53:50;32.70;;;4.10;;
3155;SDS011;1588;50.892;7.082;2023-02-01T10:59:03;12.53;;;2.33;;
3155;SDS011;1588;50.892;7.082;2023-02-01T11:04:09;15.00;;;3.20;;
3155;SDS011;1588;50.892;7.082;2023-02-01T11:09:16;6.60;;;2.17;;
3155;SDS011;1588;50.892;7.082;2023-02-01T11:14:27;5.93;;;2.10;;
3155;SDS011;1588;50.892;7.082;2023-02-01T11:19:36;10.40;;;2.90;;
3155;SDS011;1588;50.892;7.082;2023-02-01T11:24:39;20.60;;;3.67;;
3155;SDS011;1588;50.892;7.082;2023-02-01T11:29:48;11.53;;;2.53;;
3155;SDS011;1588;50.892;7.082;2023-02-01T11:34:55;22.03;;;3.60;;
3155;SDS011;1588;50.892;7.082;2023-02-01T11:40:02;19.73;;;3.13;;
3155;SDS011;1588;50.892;7.082;2023-02-01T11:45:18;10.73;;;3.67;;
3155;SDS011;1588;50.892;7.082;2023-02-01T11:50:25;17.80;;;3.50;;
3155;SDS011;1588;50.892;7.082;2023-02-01T11:55:48;12.07;;;3.60;;
3155;SDS011;1588;50.892;7.082;2023-02-01T12:01:06;15.80;;;3.57;;
3155;SDS011;1588;50.892;7.082;2023-02-01T12:06:23;13.67;;;3.37;;
3155;SDS011;1588;50.892;7.082;2023-02-01T12:11:48;11.27;;;3.03;;
3155;SDS011;1588;50.892;7.082;2023-02-01T12:17:11;14.10;;;3.17;;
3155;SDS011;1588;50.892;7.082;2023-02-01T12:22:38;2.50;;;1.47;;
3155;SDS011;1588;50.892;7.082;2023-02-01T12:28:10;11.20;;;2.63;;
3155;SDS011;1588;50.892;7.082;2023-02-01T12:33:38;14.03;;;2.93;;
3155;SDS011;1588;50.892;7.082;2023-02-01T12:39:02;15.83;;;3.13;;
3155;SDS011;1588;50.892;7.082;2023-02-01T12:44:15;11.87;;;3.40;;
3155;SDS011;1588;50.892;7.082;2023-02-01T12:49:30;8.50;;;2.33;;
3155;SDS011;1588;50.892;7.082;2023-02-01T12:54:41;14.60;;;3.00;;
3155;SDS011;1588;50.892;7.082;2023-02-01T12:59:49;11.30;;;2.60;;
3155;SDS011;1588;50.892;7.082;2023-02-01T13:04:59;21.83;;;2.13;;
3155;SDS011;1588;50.892;7.082;2023-02-01T13:10:11;20.43;;;3.10;;
3155;SDS011;1588;50.892;7.082;2023-02-01T13:15:28;15.63;;;2.47;;
3155;SDS011;1588;50.892;7.082;2023-02-01T13:20:35;8.63;;;2.43;;
3155;SDS011;1588;50.892;7.082;2023-02-01T13:25:45;11.50;;;1.90;;
3155;SDS011;1588;50.892;7.082;2023-02-01T13:30:54;14.57;;;2.77;;
3155;SDS011;1588;50.892;7.082;2023-02-01T13:36:20;10.90;;;2.97;;
3155;SDS011;1588;50.892;7.082;2023-02-01T13:41:51;8.97;;;2.17;;
3155;SDS011;1588;50.892;7.082;2023-02-01T13:46:57;10.70;;;3.00;;
3155;SDS011;1588;50.892;7.082;2023-02-01T13:52:04;20.67;;;2.60;;
3155;SDS011;1588;50.892;7.082;2023-02-01T13:57:13;6.53;;;3.07;;
3155;SDS011;1588;50.892;7.082;2023-02-01T14:02:47;11.60;;;2.30;;
3155;SDS011;1588;50.892;7.082;2023-02-01T14:08:08;20.00;;;3.43;;
3155;SDS011;1588;50.892;7.082;2023-02-01T14:13:21;7.47;;;2.77;;
3155;SDS011;1588;50.892;7.082;2023-02-01T14:24:04;5.60;;;1.93;;
3155;SDS011;1588;50.892;7.082;2023-02-01T14:29:21;20.47;;;2.00;;
3155;SDS011;1588;50.892;7.082;2023-02-01T14:34:30;9.03;;;1.87;;
3155;SDS011;1588;50.892;7.082;2023-02-01T14:39:49;28.27;;;3.00;;
3155;SDS011;1588;50.892;7.082;2023-02-01T14:50:35;7.53;;;1.97;;
3155;SDS011;1588;50.892;7.082;2023-02-01T14:55:43;4.53;;;1.80;;
3155;SDS011;1588;50.892;7.082;2023-02-01T15:00:50;18.43;;;2.60;;
3155;SDS011;1588;50.892;7.082;2023-02-01T15:05:57;10.87;;;2.37;;
3155;SDS011;1588;50.892;7.082;2023-02-01T15:11:04;8.70;;;2.10;;
3155;SDS011;1588;50.892;7.082;2023-02-01T15:16:13;5.63;;;1.97;;
3155;SDS011;1588;50.892;7.082;2023-02-01T15:21:17;10.60;;;2.67;;
3155;SDS011;1588;50.892;7.082;2023-02-01T15:26:28;8.80;;;3.77;;
3155;SDS011;1588;50.892;7.082;2023-02-01T15:31:39;8.97;;;2.13;;
3155;SDS011;1588;50.892;7.082;2023-02-01T15:36:43;17.77;;;2.77;;
3155;SDS011;1588;50.892;7.082;2023-02-01T15:41:50;9.00;;;2.23;;
3155;SDS011;1588;50.892;7.082;2023-02-01T15:46:55;6.63;;;2.43;;
3155;SDS011;1588;50.892;7.082;2023-02-01T15:52:14;13.70;;;3.53;;
3155;SDS011;1588;50.892;7.082;2023-02-01T15:57:29;9.27;;;2.70;;
3155;SDS011;1588;50.892;7.082;2023-02-01T16:02:36;11.93;;;3.20;;
3155;SDS011;1588;50.892;7.082;2023-02-01T16:07:53;17.20;;;2.80;;
3155;SDS011;1588;50.892;7.082;2023-02-01T16:13:05;15.90;;;2.80;;
3155;SDS011;1588;50.892;7.082;2023-02-01T16:18:09;16.37;;;3.47;;
3155;SDS011;1588;50.892;7.082;2023-02-01T16:23:18;17.00;;;3.67;;
3155;SDS011;1588;50.892;7.082;2023-02-01T16:28:23;3.13;;;1.03;;
3155;SDS011;1588;50.892;7.082;2023-02-01T16:33:26;9.53;;;2.27;;
3155;SDS011;1588;50.892;7.082;2023-02-01T16:38:39;8.87;;;2.30;;
3155;SDS011;1588;50.892;7.082;2023-02-01T16:43:44;5.27;;;1.80;;
3155;SDS011;1588;50.892;7.082;2023-02-01T16:48:51;21.03;;;2.90;;
3155;SDS011;1588;50.892;7.082;2023-02-01T16:54:02;10.40;;;2.60;;
3155;SDS011;1588;50.892;7.082;2023-02-01T16:59:13;10.83;;;2.13;;
3155;SDS011;1588;50.892;7.082;2023-02-01T17:04:16;7.63;;;2.33;;
3155;SDS011;1588;50.892;7.082;2023-02-01T17:09:21;10.47;;;2.60;;
3155;SDS011;1588;50.892;7.082;2023-02-01T17:14:29;5.90;;;1.80;;
3155;SDS011;1588;50.892;7.082;2023-02-01T17:19:33;4.17;;;1.93;;
3155;SDS011;1588;50.892;7.082;2023-02-01T17:24:36;11.67;;;2.80;;
3155;SDS011;1588;50.892;7.082;2023-02-01T17:29:40;10.00;;;2.77;;
3155;SDS011;1588;50.892;7.082;2023-02-01T17:34:48;15.77;;;2.87;;
3155;SDS011;1588;50.892;7.082;2023-02-01T17:39:52;9.30;;;2.30;;
3155;SDS011;1588;50.892;7.082;2023-02-01T17:45:00;3.37;;;2.17;;
3155;SDS011;1588;50.892;7.082;2023-02-01T17:50:15;5.70;;;1.70;;
3155;SDS011;1588;50.892;7.082;2023-02-01T17:55:33;18.73;;;3.63;;
3155;SDS011;1588;50.892;7.082;2023-02-01T18:00:38;13.23;;;3.07;;
3155;SDS011;1588;50.892;7.082;2023-02-01T18:05:41;9.83;;;3.17;;
3155;SDS011;1588;50.892;7.082;2023-02-01T18:10:51;10.33;;;3.00;;
3155;SDS011;1588;50.892;7.082;2023-02-01T18:15:56;31.97;;;3.63;;
3155;SDS011;1588;50.892;7.082;2023-02-01T18:21:07;12.17;;;2.80;;
3155;SDS011;1588;50.892;7.082;2023-02-01T18:26:11;19.67;;;3.33;;
3155;SDS011;1588;50.892;7.082;2023-02-01T18:31:26;8.80;;;3.20;;
3155;SDS011;1588;50.892;7.082;2023-02-01T18:36:31;13.93;;;2.70;;
3155;SDS011;1588;50.892;7.082;2023-02-01T18:41:34;18.60;;;3.40;;
3155;SDS011;1588;50.892;7.082;2023-02-01T18:46:38;8.47;;;2.60;;
3155;SDS011;1588;50.892;7.082;2023-02-01T18:51:42;19.47;;;3.03;;
3155;SDS011;1588;50.892;7.082;2023-02-01T18:56:44;12.67;;;3.20;;
3155;SDS011;1588;50.892;7.082;2023-02-01T19:01:50;17.00;;;3.40;;
3155;SDS011;1588;50.892;7.082;2023-02-01T19:06:53;8.03;;;2.53;;
3155;SDS011;1588;50.892;7.082;2023-02-01T19:11:58;12.77;;;2.67;;
3155;SDS011;1588;50.892;7.082;2023-02-01T19:17:05;12.47;;;2.60;;
3155;SDS011;1588;50.892;7.082;2023-02-01T19:22:09;19.67;;;3.27;;
3155;SDS011;1588;50.892;7.082;2023-02-01T19:27:14;10.90;;;2.87;;
3155;SDS011;1588;50.892;7.082;2023-02-01T19:32:21;11.77;;;3.20;;
3155;SDS011;1588;50.892;7.082;2023-02-01T19:37:25;13.73;;;3.13;;
3155;SDS011;1588;50.892;7.082;2023-02-01T19:42:28;13.20;;;3.03;;
3155;SDS011;1588;50.892;7.082;2023-02-01T19:47:34;8.20;;;2.20;;
3155;SDS011;1588;50.892;7.082;2023-02-01T19:52:36;17.40;;;3.13;;
3155;SDS011;1588;50.892;7.082;2023-02-01T19:57:39;17.57;;;2.70;;
3155;SDS011;1588;50.892;7.082;2023-02-01T20:02:44;9.47;;;2.70;;
3155;SDS011;1588;50.892;7.082;2023-02-01T20:07:47;14.10;;;2.70;;
3155;SDS011;1588;50.892;7.082;2023-02-01T20:12:50;19.43;;;3.83;;
3155;SDS011;1588;50.892;7.082;2023-02-01T20:17:54;15.10;;;3.23;;
3155;SDS011;1588;50.892;7.082;2023-02-01T20:22:57;12.20;;;2.13;;
3155;SDS011;1588;50.892;7.082;2023-02-01T20:27:59;20.10;;;2.73;;
3155;SDS011;1588;50.892;7.082;2023-02-01T20:33:04;16.23;;;2.57;;
3155;SDS011;1588;50.892;7.082;2023-02-01T20:38:09;7.30;;;2.27;;
3155;SDS011;1588;50.892;7.082;2023-02-01T20:43:16;12.77;;;2.70;;
3155;SDS011;1588;50.892;7.082;2023-02-01T20:48:19;7.93;;;2.80;;
3155;SDS011;1588;50.892;7.082;2023-02-01T20:53:22;16.27;;;3.33;;
3155;SDS011;1588;50.892;7.082;2023-02-01T20:58:25;7.50;;;2.33;;
3155;SDS011;1588;50.892;7.082;2023-02-01T21:03:29;14.70;;;3.77;;
3155;SDS011;1588;50.892;7.082;2023-02-01T21:08:34;12.10;;;2.90;;
3155;SDS011;1588;50.892;7.082;2023-02-01T21:13:41;14.83;;;3.80;;
3155;SDS011;1588;50.892;7.082;2023-02-01T21:18:51;12.97;;;2.53;;
3155;SDS011;1588;50.892;7.082;2023-02-01T21:23:55;9.63;;;2.27;;
3155;SDS011;1588;50.892;7.082;2023-02-01T21:28:57;9.57;;;2.47;;
3155;SDS011;1588;50.892;7.082;2023-02-01T21:34:04;27.90;;;3.73;;
3155;SDS011;1588;50.892;7.082;2023-02-01T21:39:09;15.37;;;3.90;;
3155;SDS011;1588;50.892;7.082;2023-02-01T21:44:22;11.37;;;3.50;;
3155;SDS011;1588;50.892;7.082;2023-02-01T21:49:26;10.97;;;3.03;;
3155;SDS011;1588;50.892;7.082;2023-02-01T21:54:29;17.60;;;3.57;;
3155;SDS011;1588;50.892;7.082;2023-02-01T21:59:32;7.53;;;3.50;;
3155;SDS011;1588;50.892;7.082;2023-02-01T22:04:42;12.73;;;3.90;;
3155;SDS011;1588;50.892;7.082;2023-02-01T22:09:46;10.53;;;3.60;;
3155;SDS011;1588;50.892;7.082;2023-02-01T22:14:49;11.20;;;3.50;;
3155;SDS011;1588;50.892;7.082;2023-02-01T22:19:59;16.07;;;4.20;;
3155;SDS011;1588;50.892;7.082;2023-02-01T22:25:02;13.57;;;5.10;;
3155;SDS011;1588;50.892;7.082;2023-02-01T22:30:06;13.63;;;3.93;;
3155;SDS011;1588;50.892;7.082;2023-02-01T22:35:12;12.23;;;4.53;;
3155;SDS011;1588;50.892;7.082;2023-02-01T22:40:17;21.30;;;4.37;;
3155;SDS011;1588;50.892;7.082;2023-02-01T22:45:21;13.13;;;3.33;;
3155;SDS011;1588;50.892;7.082;2023-02-01T22:50:25;16.30;;;3.73;;
3155;SDS011;1588;50.892;7.082;2023-02-01T22:55:30;12.20;;;3.67;;
3155;SDS011;1588;50.892;7.082;2023-02-01T23:00:36;10.80;;;3.17;;
3155;SDS011;1588;50.892;7.082;2023-02-01T23:05:43;7.93;;;2.67;;
3155;SDS011;1588;50.892;7.082;2023-02-01T23:10:46;14.00;;;3.40;;
3155;SDS011;1588;50.892;7.082;2023-02-01T23:15:49;13.60;;;4.57;;
3155;SDS011;1588;50.892;7.082;2023-02-01T23:20:53;8.70;;;3.27;;
3155;SDS011;1588;50.892;7.082;2023-02-01T23:25:56;20.33;;;4.57;;
3155;SDS011;1588;50.892;7.082;2023-02-01T23:30:59;23.17;;;3.90;;
3155;SDS011;1588;50.892;7.082;2023-02-01T23:36:10;17.63;;;3.70;;
3155;SDS011;1588;50.892;7.082;2023-02-01T23:41:18;13.67;;;4.70;;
3155;SDS011;1588;50.892;7.082;2023-02-01T23:46:22;16.23;;;4.27;;
3155;SDS011;1588;50.892;7.082;2023-02-01T23:51:28;14.63;;;3.83;;
3155;SDS011;1588;50.892;7.082;2023-02-01T23:56:32;10.70;;;2.90;;
